This is the latest recevied weather packets stored in our database for station/object Kisslegg. If no packets are shown the sender has not sent any weather packets the latest 10 day(s).
| Time | Temp. | Humidity | Pressure | Rain* | Wind** | Luminosity | Snow |
|---|---|---|---|---|---|---|---|
| 1788105731 | 24.44° C | 63% | 1013.9 hPa | 0.51 mm | - | - | - |
| 1788103931 | 24.44° C | 61% | 1013.9 hPa | 0.51 mm | - | - | - |
| 1788102130 | 25° C | 60% | 1014 hPa | 0.51 mm | - | - | - |
| 1788100331 | 25° C | 60% | 1014.1 hPa | 0.51 mm | - | - | - |
| 1788098531 | 24.44° C | 61% | 1014.2 hPa | 0.51 mm | - | - | - |
| 1788096730 | 25° C | 61% | 1014.3 hPa | 0.51 mm | - | - | - |
| 1788094931 | 24.44° C | 64% | 1014.6 hPa | 0.51 mm | - | - | - |
| 1788093130 | 23.89° C | 62% | 1014.8 hPa | 0.51 mm | - | - | - |
| 1788091330 | 23.89° C | 63% | 1014.9 hPa | 0.51 mm | - | - | - |
| 1788089530 | 23.89° C | 63% | 1015 hPa | 0.51 mm | - | - | - |
| 1788087732 | 22.78° C | 62% | 1015.2 hPa | 0.51 mm | - | - | - |
| 1788085930 | 23.33° C | 63% | 1015.5 hPa | 0.51 mm | - | - | - |
| 1788084129 | 23.33° C | 65% | 1015.7 hPa | 0.51 mm | - | - | - |
| 1788082330 | 22.78° C | 67% | 1015.9 hPa | 0.51 mm | - | - | - |
| 1788080530 | 21.67° C | 72% | 1016 hPa | 0.51 mm | - | - | - |
| 1788078729 | 21.11° C | 75% | 1016.1 hPa | 0.51 mm | - | - | - |
| 1788076929 | 20° C | 76% | 1016.2 hPa | 0.25 mm | - | - | - |
| 1788075130 | 19.44° C | 79% | 1016.2 hPa | 0.25 mm | - | - | - |
| 1788073329 | 18.33° C | 83% | 1016.2 hPa | 0.25 mm | - | - | - |
| 1788071530 | 16.67° C | 88% | 1016.3 hPa | 0.25 mm | - | - | - |
| 1788069730 | 16.67° C | 89% | 1016.2 hPa | 0.25 mm | - | - | - |
| 1788067930 | 16.11° C | 88% | 1016.2 hPa | 0.25 mm | - | - | - |
| 1788066130 | 16.11° C | 88% | 1016.3 hPa | 0.25 mm | - | - | - |
| 1788064329 | 16.11° C | 88% | 1016.1 hPa | 0.25 mm | - | - | - |
| 1788062529 | 16.11° C | 88% | 1016 hPa | 0.25 mm | - | - | - |
* Rain since midnight (hover to see other rain measurements)
** Current wind speed in m/s (hover to see current wind gust speed)